createdAt,value
2023-02-05T00:02:11.755Z,19.90
2023-02-05T00:04:40.337Z,26.50
2023-02-05T00:07:08.557Z,23.37
2023-02-05T00:09:40.949Z,27.30
2023-02-05T00:12:09.365Z,22.57
2023-02-05T00:14:37.584Z,21.20
2023-02-05T00:17:05.742Z,23.23
2023-02-05T00:19:33.815Z,24.23
2023-02-05T00:22:01.905Z,28.20
2023-02-05T00:24:30.005Z,22.47
2023-02-05T00:26:59.509Z,25.10
2023-02-05T00:29:27.742Z,27.70
2023-02-05T00:31:55.946Z,23.20
2023-02-05T00:34:24.036Z,28.97
2023-02-05T00:36:52.094Z,27.57
2023-02-05T00:39:20.178Z,29.83
2023-02-05T00:41:48.260Z,31.07
2023-02-05T00:44:17.722Z,33.20
2023-02-05T00:46:45.817Z,30.33
2023-02-05T00:49:13.912Z,35.23
2023-02-05T00:51:42.015Z,40.43
2023-02-05T00:54:10.282Z,35.63
2023-02-05T00:56:38.369Z,40.17
2023-02-05T00:59:06.479Z,34.27
2023-02-05T01:01:35.971Z,36.57
2023-02-05T01:04:04.174Z,41.77
2023-02-05T01:06:32.301Z,42.20
2023-02-05T01:09:00.361Z,43.17
2023-02-05T01:11:28.482Z,39.17
2023-02-05T01:13:56.847Z,38.50
2023-02-05T01:16:25.009Z,43.40
2023-02-05T01:18:56.789Z,42.10
2023-02-05T01:21:25.381Z,48.07
2023-02-05T01:23:54.560Z,45.43
2023-02-05T01:26:23.305Z,47.63
2023-02-05T01:28:51.803Z,43.83
2023-02-05T01:31:20.777Z,52.27
2023-02-05T01:33:48.974Z,40.57
2023-02-05T01:36:18.398Z,44.53
2023-02-05T01:38:46.495Z,47.07
2023-02-05T01:41:14.955Z,52.10
2023-02-05T01:43:43.138Z,46.07
2023-02-05T01:46:26.940Z,45.30
2023-02-05T02:04:35.418Z,49.00
2023-02-05T02:07:04.275Z,51.60
2023-02-05T02:09:32.455Z,54.70
2023-02-05T02:12:00.831Z,52.37
2023-02-05T02:14:35.037Z,54.03
2023-02-05T02:17:05.360Z,47.60
2023-02-05T02:19:43.775Z,47.93
2023-02-05T02:22:41.772Z,46.87
2023-02-05T02:25:28.405Z,50.23
2023-02-05T02:28:00.286Z,49.37
2023-02-05T02:30:34.044Z,52.00
2023-02-05T02:33:08.703Z,55.20
2023-02-05T02:35:46.083Z,49.03
2023-02-05T02:38:21.778Z,48.03
2023-02-05T02:40:53.045Z,50.87
2023-02-05T02:43:26.396Z,45.93
2023-02-05T02:45:59.451Z,47.70
2023-02-05T02:48:30.510Z,48.93
2023-02-05T02:51:01.337Z,48.90
2023-02-05T02:53:34.353Z,44.03
2023-02-05T02:56:04.822Z,46.60
2023-02-05T02:58:37.363Z,47.07
2023-02-05T03:06:27.990Z,42.13
2023-02-05T03:09:01.083Z,40.93
2023-02-05T03:11:29.207Z,40.13
2023-02-05T03:13:58.831Z,36.57
2023-02-05T03:16:28.382Z,43.30
2023-02-05T03:18:57.227Z,38.40
2023-02-05T03:21:30.158Z,38.00
2023-02-05T03:23:58.219Z,35.17
2023-02-05T03:26:28.177Z,39.47
2023-02-05T03:28:59.375Z,33.93
2023-02-05T03:31:35.979Z,32.57
2023-02-05T03:34:12.876Z,33.93
2023-02-05T03:36:53.814Z,34.33
2023-02-05T03:39:30.870Z,32.83
2023-02-05T03:42:11.461Z,34.17
2023-02-05T03:44:58.276Z,36.03
2023-02-05T03:47:36.988Z,36.43
2023-02-05T03:50:13.868Z,33.60
2023-02-05T03:52:46.565Z,32.40
2023-02-05T03:55:19.349Z,27.10
2023-02-05T03:57:53.710Z,28.77
2023-02-05T04:00:24.222Z,27.27
2023-02-05T04:02:52.284Z,27.47
2023-02-05T04:05:22.888Z,28.40
2023-02-05T04:07:51.233Z,26.63
2023-02-05T04:10:20.408Z,26.40
2023-02-05T04:12:48.494Z,24.90
2023-02-05T04:15:16.726Z,28.63
2023-02-05T04:17:46.142Z,27.77
2023-02-05T04:20:14.324Z,24.23
2023-02-05T04:22:42.468Z,26.23
2023-02-05T04:25:10.596Z,27.67
2023-02-05T04:27:38.633Z,25.63
2023-02-05T04:30:07.972Z,25.33
2023-02-05T04:32:36.043Z,25.13
2023-02-05T04:35:05.905Z,27.93
2023-02-05T04:37:34.015Z,25.90
2023-02-05T04:40:02.071Z,27.50
2023-02-05T04:42:30.163Z,24.00
2023-02-05T04:44:58.199Z,27.03
2023-02-05T04:47:26.316Z,25.00
2023-02-05T04:49:54.394Z,27.30
2023-02-05T04:52:23.831Z,28.47
2023-02-05T04:54:52.110Z,30.37
2023-02-05T04:57:20.181Z,32.27
2023-02-05T04:59:48.227Z,28.33
2023-02-05T05:02:16.286Z,28.47
2023-02-05T05:04:44.648Z,30.80
2023-02-05T05:07:12.709Z,28.87
2023-02-05T05:09:42.314Z,26.03
2023-02-05T05:12:10.429Z,25.07
2023-02-05T05:14:38.765Z,26.53
2023-02-05T05:17:06.901Z,25.33
2023-02-05T05:19:35.045Z,24.90
2023-02-05T05:22:03.083Z,24.47
2023-02-05T05:24:31.268Z,25.17
2023-02-05T05:27:00.950Z,25.57
2023-02-05T05:29:29.030Z,23.63
2023-02-05T05:31:57.189Z,29.53
2023-02-05T05:34:25.332Z,25.57
2023-02-05T05:36:53.538Z,23.20
2023-02-05T05:39:39.220Z,23.33
2023-02-05T05:42:26.337Z,24.00
2023-02-05T05:44:54.426Z,22.77
2023-02-05T05:47:22.939Z,27.07
2023-02-05T05:49:51.027Z,17.77
2023-02-05T05:52:19.139Z,25.20
2023-02-05T05:54:47.162Z,24.93
2023-02-05T05:57:16.635Z,20.03
2023-02-05T05:59:44.675Z,19.97
2023-02-05T06:02:12.788Z,22.13
2023-02-05T06:04:40.933Z,22.13
2023-02-05T06:07:09.007Z,22.73
2023-02-05T06:09:37.080Z,20.53
2023-02-05T06:12:05.322Z,19.90
2023-02-05T06:14:35.020Z,20.60
2023-02-05T06:17:03.077Z,18.57
2023-02-05T06:19:31.310Z,19.00
2023-02-05T06:21:59.405Z,15.37
2023-02-05T06:24:29.563Z,17.90
2023-02-05T06:26:58.964Z,13.23
2023-02-05T06:29:27.072Z,15.30
2023-02-05T06:31:56.515Z,15.63
2023-02-05T06:34:27.024Z,13.00
2023-02-05T06:36:55.076Z,12.60
2023-02-05T06:39:25.170Z,10.47
2023-02-05T06:41:53.448Z,6.03
2023-02-05T06:44:21.616Z,5.43
2023-02-05T06:46:49.682Z,4.30
2023-02-05T06:49:19.177Z,6.10
2023-02-05T06:51:47.492Z,5.63
2023-02-05T06:54:15.852Z,3.37
2023-02-05T06:56:43.954Z,8.60
2023-02-05T06:59:12.164Z,5.50
2023-02-05T07:01:40.343Z,3.00
2023-02-05T07:04:08.528Z,10.07
2023-02-05T07:06:38.309Z,6.93
2023-02-05T07:09:06.643Z,13.80
2023-02-05T07:11:34.914Z,5.57
2023-02-05T07:14:03.229Z,6.93
2023-02-05T07:24:04.300Z,5.33
2023-02-05T07:26:32.336Z,5.00
2023-02-05T07:29:00.407Z,5.57
2023-02-05T07:31:28.847Z,2.40
2023-02-05T07:33:56.979Z,5.00
2023-02-05T07:36:25.063Z,8.93
2023-02-05T07:38:53.069Z,4.33
2023-02-05T07:41:22.490Z,4.90
2023-02-05T07:43:52.641Z,6.50
2023-02-05T07:46:22.335Z,11.73
2023-02-05T07:48:50.824Z,6.90
2023-02-05T07:51:21.036Z,4.57
2023-02-05T07:53:49.229Z,4.30
2023-02-05T07:56:17.533Z,6.13
2023-02-05T07:58:46.973Z,9.33
2023-02-05T08:01:15.289Z,8.30
2023-02-05T08:03:43.387Z,5.73
2023-02-05T08:06:15.806Z,5.23
2023-02-05T08:08:44.334Z,8.30
2023-02-05T08:11:16.046Z,7.77
2023-02-05T08:13:44.484Z,3.97
2023-02-05T08:16:15.772Z,5.73
2023-02-05T08:18:44.470Z,9.43
2023-02-05T08:21:12.554Z,8.47
2023-02-05T08:23:40.614Z,7.87
2023-02-05T08:26:08.731Z,6.37
2023-02-05T08:28:36.865Z,7.57
2023-02-05T08:31:11.402Z,8.87
2023-02-05T08:33:41.166Z,9.77
2023-02-05T08:36:10.702Z,14.30
2023-02-05T08:38:39.123Z,9.70
2023-02-05T08:41:12.652Z,11.60
2023-02-05T08:43:42.719Z,12.17
2023-02-05T08:46:12.401Z,11.33
2023-02-05T08:48:42.361Z,9.77
2023-02-05T08:51:11.742Z,10.63
2023-02-05T08:53:40.273Z,7.47
2023-02-05T08:56:10.634Z,12.00
2023-02-05T08:58:39.866Z,9.93
2023-02-05T09:01:10.408Z,9.33
2023-02-05T09:03:38.966Z,11.63
2023-02-05T09:06:10.019Z,5.97
2023-02-05T09:08:38.416Z,10.70
2023-02-05T09:11:07.156Z,12.90
2023-02-05T09:13:35.871Z,8.30
2023-02-05T09:16:03.936Z,6.83
2023-02-05T09:18:32.062Z,10.67
2023-02-05T09:21:00.149Z,15.67
2023-02-05T09:23:30.041Z,19.90
2023-02-05T09:25:59.838Z,18.00
2023-02-05T09:28:28.224Z,14.93
2023-02-05T09:42:34.038Z,14.73
2023-02-05T09:45:19.220Z,14.20
2023-02-05T09:47:59.175Z,11.93
2023-02-05T09:50:30.238Z,19.27
2023-02-05T09:53:02.625Z,18.80
2023-02-05T09:55:33.837Z,14.37
2023-02-05T09:58:07.832Z,14.70
2023-02-05T10:00:46.158Z,15.27
2023-02-05T10:03:24.237Z,11.77
2023-02-05T10:06:09.108Z,20.70
2023-02-05T10:08:45.415Z,11.30
2023-02-05T10:11:21.309Z,15.70
2023-02-05T10:14:03.852Z,9.40
2023-02-05T10:16:42.926Z,11.50
2023-02-05T10:19:26.232Z,19.27
2023-02-05T10:22:13.433Z,15.90
2023-02-05T10:25:09.522Z,9.87
2023-02-05T10:27:42.993Z,14.60
2023-02-05T10:30:22.380Z,12.43
2023-02-05T10:32:58.583Z,10.87
2023-02-05T10:35:34.659Z,10.50
2023-02-05T10:38:06.019Z,14.97
2023-02-05T10:40:40.457Z,14.90
2023-02-05T10:43:26.630Z,16.97
2023-02-05T10:45:57.029Z,16.27
2023-02-05T10:48:38.254Z,10.57
2023-02-05T10:51:09.556Z,13.63
2023-02-05T10:53:37.684Z,10.70
2023-02-05T10:56:07.175Z,17.33
2023-02-05T10:58:41.053Z,13.93
2023-02-05T11:01:16.584Z,12.47
2023-02-05T11:03:54.297Z,12.93
2023-02-05T11:06:25.391Z,13.07
2023-02-05T11:08:53.751Z,13.10
2023-02-05T11:11:24.672Z,14.37
2023-02-05T11:13:56.216Z,11.03
2023-02-05T11:16:36.080Z,11.93
2023-02-05T11:19:04.852Z,11.93
2023-02-05T11:21:51.845Z,16.20
2023-02-05T11:24:32.639Z,12.47
2023-02-05T11:27:29.356Z,16.00
2023-02-05T11:29:59.939Z,22.37
2023-02-05T11:32:37.724Z,13.07
2023-02-05T11:35:19.180Z,12.87
2023-02-05T11:37:49.974Z,12.30
2023-02-05T11:40:23.706Z,18.67
2023-02-05T11:43:05.888Z,16.17
2023-02-05T11:45:36.828Z,16.33
2023-02-05T11:48:12.439Z,15.57
2023-02-05T11:50:45.721Z,16.73
2023-02-05T11:53:17.388Z,16.00
2023-02-05T11:55:45.860Z,19.70
2023-02-05T11:58:34.877Z,19.33
2023-02-05T12:01:05.857Z,15.20
2023-02-05T12:03:36.155Z,16.10
2023-02-05T12:06:12.112Z,17.97
2023-02-05T12:08:46.323Z,11.80
2023-02-05T12:12:03.794Z,15.20
2023-02-05T12:14:41.389Z,16.60
2023-02-05T12:17:28.940Z,23.97
2023-02-05T12:20:05.824Z,15.63
2023-02-05T12:22:53.784Z,18.67
2023-02-05T12:25:26.462Z,16.63
2023-02-05T12:28:10.797Z,16.03
2023-02-05T12:30:58.060Z,10.50
2023-02-05T12:33:50.564Z,14.90
2023-02-05T12:36:35.348Z,16.10
2023-02-05T12:39:19.049Z,13.20
2023-02-05T12:41:59.080Z,11.97
2023-02-05T12:44:41.045Z,13.03
2023-02-05T12:47:22.168Z,16.20
2023-02-05T12:50:11.754Z,14.17
2023-02-05T12:52:57.942Z,12.93
2023-02-05T12:55:42.093Z,12.00
2023-02-05T12:58:14.190Z,17.97
2023-02-05T13:00:45.929Z,12.33
2023-02-05T13:03:23.694Z,12.07
2023-02-05T13:05:56.325Z,10.47
2023-02-05T13:08:37.488Z,16.63
2023-02-05T13:11:11.820Z,13.27
2023-02-05T13:13:49.117Z,9.60
2023-02-05T13:16:20.038Z,16.70
2023-02-05T13:18:54.915Z,9.83
2023-02-05T13:21:40.852Z,16.00
2023-02-05T13:24:44.863Z,9.40
2023-02-05T13:27:40.319Z,11.23
2023-02-05T13:30:14.772Z,14.37
2023-02-05T13:32:45.342Z,8.87
2023-02-05T13:35:13.460Z,10.63
2023-02-05T13:38:02.622Z,12.67
2023-02-05T13:41:00.723Z,9.20
2023-02-05T13:43:53.426Z,13.97
2023-02-05T13:46:46.693Z,10.20
2023-02-05T13:49:59.890Z,16.30
2023-02-05T13:53:00.828Z,11.50
2023-02-05T13:56:02.607Z,17.07
2023-02-05T13:58:33.064Z,15.20
2023-02-05T14:01:04.551Z,14.20
2023-02-05T14:03:39.145Z,13.03
2023-02-05T14:06:16.538Z,12.83
2023-02-05T14:08:45.390Z,11.03
2023-02-05T14:11:14.819Z,9.70
2023-02-05T14:13:42.960Z,9.73
2023-02-05T14:16:38.989Z,10.97
2023-02-05T14:19:16.648Z,10.33
2023-02-05T14:22:03.241Z,12.90
2023-02-05T14:24:50.771Z,13.60
2023-02-05T14:27:50.955Z,8.87
2023-02-05T14:30:53.699Z,13.00
2023-02-05T14:33:43.245Z,11.23
2023-02-05T14:36:35.396Z,9.53
2023-02-05T14:39:06.800Z,10.63
2023-02-05T14:41:50.656Z,14.33
2023-02-05T14:44:28.355Z,12.67
2023-02-05T14:47:10.193Z,10.23
2023-02-05T14:49:42.901Z,10.17
2023-02-05T14:52:28.289Z,12.37
2023-02-05T14:55:01.005Z,15.17
2023-02-05T14:57:39.357Z,10.30
2023-02-05T15:00:25.771Z,13.33
2023-02-05T15:03:29.337Z,11.23
2023-02-05T15:06:01.723Z,13.53
2023-02-05T15:08:47.629Z,12.90
2023-02-05T15:11:25.731Z,8.67
2023-02-05T15:14:34.478Z,13.07
2023-02-05T15:17:37.602Z,13.13
2023-02-05T15:20:27.522Z,11.40
2023-02-05T15:23:01.448Z,15.07
2023-02-05T15:25:37.054Z,10.00
2023-02-05T15:28:09.594Z,9.40
2023-02-05T15:30:52.456Z,11.20
2023-02-05T15:33:30.221Z,12.83
2023-02-05T15:36:01.355Z,12.73
2023-02-05T15:38:36.196Z,11.57
2023-02-05T15:41:08.259Z,16.30
2023-02-05T15:43:36.357Z,11.13
2023-02-05T15:46:07.701Z,9.10
2023-02-05T15:48:38.607Z,15.77
2023-02-05T15:51:19.962Z,16.03
2023-02-05T15:53:51.054Z,12.23
2023-02-05T15:56:26.682Z,12.17
2023-02-05T15:58:57.439Z,8.57
2023-02-05T16:01:29.428Z,15.47
2023-02-05T16:03:57.837Z,10.13
2023-02-05T16:06:28.697Z,15.77
2023-02-05T16:08:57.494Z,9.80
2023-02-05T16:11:32.830Z,10.50
2023-02-05T16:14:06.208Z,15.17
2023-02-05T16:16:36.732Z,11.17
2023-02-05T16:19:08.948Z,13.07
2023-02-05T16:21:43.078Z,14.00
2023-02-05T16:39:28.893Z,12.60
2023-02-05T16:42:05.549Z,15.00
2023-02-05T16:44:36.966Z,14.17
2023-02-05T16:47:16.321Z,13.10
2023-02-05T16:49:45.821Z,17.63
2023-02-05T16:52:31.971Z,17.93
2023-02-05T16:55:07.116Z,17.23
2023-02-05T16:57:38.218Z,13.83
2023-02-05T17:00:08.924Z,13.07
2023-02-05T17:02:39.961Z,23.60
2023-02-05T17:05:22.318Z,18.50
2023-02-05T17:07:56.124Z,14.33
2023-02-05T17:10:28.198Z,17.93
2023-02-05T17:12:58.294Z,15.43
2023-02-05T17:15:33.764Z,13.57
2023-02-05T17:18:17.643Z,16.33
2023-02-05T17:20:46.181Z,19.53
2023-02-05T17:23:16.298Z,16.20
2023-02-05T17:25:52.332Z,17.83
2023-02-05T17:28:24.862Z,17.03
2023-02-05T17:30:55.225Z,19.87
2023-02-05T17:33:25.288Z,15.20
2023-02-05T17:35:53.611Z,17.30
2023-02-05T17:38:23.588Z,15.53
2023-02-05T17:41:13.468Z,14.27
2023-02-05T17:43:41.917Z,14.13
2023-02-05T17:46:13.989Z,13.37
2023-02-05T17:48:44.542Z,16.07
2023-02-05T17:51:20.084Z,17.77
2023-02-05T17:53:48.418Z,12.97
2023-02-05T17:56:19.561Z,20.33
2023-02-05T17:58:48.069Z,14.37
2023-02-05T18:01:16.498Z,17.07
2023-02-05T18:03:44.904Z,14.13
2023-02-05T18:06:15.242Z,17.37
2023-02-05T18:08:43.438Z,28.37
2023-02-05T18:11:11.675Z,20.57
2023-02-05T18:13:41.145Z,23.43
2023-02-05T18:16:11.238Z,22.33
2023-02-05T18:18:40.406Z,20.97
2023-02-05T18:21:08.553Z,22.47
2023-02-05T18:23:36.653Z,18.23
2023-02-05T18:26:06.736Z,21.27
2023-02-05T18:28:35.275Z,18.60
2023-02-05T18:31:06.637Z,17.07
2023-02-05T18:33:35.384Z,27.90
2023-02-05T18:36:04.514Z,19.60
2023-02-05T18:38:32.952Z,20.80
2023-02-05T18:41:06.649Z,19.57
2023-02-05T18:43:36.372Z,15.73
2023-02-05T18:46:10.214Z,25.20
2023-02-05T18:48:40.726Z,21.53
2023-02-05T18:51:09.886Z,15.47
2023-02-05T18:53:39.065Z,15.67
2023-02-05T18:56:09.057Z,41.23
2023-02-05T18:58:37.612Z,22.13
2023-02-05T19:01:15.348Z,19.30
2023-02-05T19:03:44.596Z,16.57
2023-02-05T19:06:14.868Z,18.20
2023-02-05T19:08:43.418Z,15.57
2023-02-05T19:11:14.172Z,19.33
2023-02-05T19:13:42.842Z,16.33
2023-02-05T19:16:15.118Z,25.20
2023-02-05T19:18:44.499Z,18.00
2023-02-05T19:21:14.572Z,18.73
2023-02-05T19:23:44.371Z,21.77
2023-02-05T19:26:15.301Z,19.13
2023-02-05T19:28:44.603Z,17.23
2023-02-05T19:31:16.128Z,20.27
2023-02-05T19:33:45.543Z,16.77
2023-02-05T19:36:13.635Z,17.63
2023-02-05T19:38:42.721Z,17.77
2023-02-05T19:41:13.051Z,17.70
2023-02-05T19:43:43.388Z,15.77
2023-02-05T19:46:12.869Z,20.67
2023-02-05T19:48:40.968Z,24.93
2023-02-05T19:51:11.857Z,22.63
2023-02-05T19:53:43.235Z,24.80
2023-02-05T19:56:13.587Z,22.60
2023-02-05T19:58:43.882Z,14.03
2023-02-05T20:01:14.362Z,22.20
2023-02-05T20:03:44.759Z,22.47
2023-02-05T20:06:16.067Z,22.90
2023-02-05T20:08:44.629Z,24.03
2023-02-05T20:11:13.807Z,21.00
2023-02-05T20:13:42.956Z,19.57
2023-02-05T20:16:16.609Z,26.67
2023-02-05T20:18:45.452Z,23.83
2023-02-05T20:21:15.537Z,24.13
2023-02-05T20:23:43.696Z,22.87
2023-02-05T20:26:11.832Z,27.07
2023-02-05T20:28:55.883Z,20.53
2023-02-05T20:31:35.016Z,18.40
2023-02-05T20:34:04.907Z,26.20
2023-02-05T20:36:34.740Z,27.20
2023-02-05T20:39:06.854Z,23.43
2023-02-05T20:41:35.483Z,24.43
2023-02-05T20:44:04.286Z,21.10
2023-02-05T20:46:33.809Z,17.73
2023-02-05T20:49:03.491Z,19.77
2023-02-05T20:51:32.279Z,24.23
2023-02-05T20:54:00.975Z,19.80
2023-02-05T20:56:30.277Z,23.17
2023-02-05T20:59:00.410Z,17.23
2023-02-05T21:01:30.325Z,26.50
2023-02-05T21:04:02.387Z,21.07
2023-02-05T21:06:32.328Z,21.43
2023-02-05T21:09:00.442Z,28.20
2023-02-05T21:11:29.667Z,26.37
2023-02-05T21:13:58.669Z,21.77
2023-02-05T21:16:28.145Z,18.93
2023-02-05T21:18:56.826Z,23.20
2023-02-05T21:21:28.483Z,31.00
2023-02-05T21:23:57.683Z,29.37
2023-02-05T21:26:28.398Z,28.33
2023-02-05T21:28:57.995Z,27.53
2023-02-05T21:31:33.490Z,25.40
2023-02-05T21:34:02.384Z,30.00
2023-02-05T21:36:32.160Z,29.13
2023-02-05T21:39:00.719Z,28.57
2023-02-05T21:41:29.344Z,24.07
2023-02-05T21:43:58.982Z,27.57
2023-02-05T21:46:29.329Z,27.73
2023-02-05T21:48:59.310Z,38.90
2023-02-05T21:51:30.845Z,31.50
2023-02-05T21:54:03.623Z,17.50
2023-02-05T21:56:33.689Z,23.13
2023-02-05T21:59:02.009Z,33.57
2023-02-05T22:01:31.899Z,34.57
2023-02-05T22:04:02.086Z,36.60
2023-02-05T22:06:31.864Z,25.03
2023-02-05T22:09:02.065Z,20.77
2023-02-05T22:11:30.162Z,28.30
2023-02-05T22:18:26.316Z,30.70
2023-02-05T22:20:54.426Z,26.67
2023-02-05T22:23:22.447Z,29.40
2023-02-05T22:25:51.924Z,20.73
2023-02-05T22:28:20.091Z,25.37
2023-02-05T22:30:48.145Z,14.67
2023-02-05T22:33:16.213Z,22.87
2023-02-05T22:35:44.236Z,23.20
2023-02-05T22:38:12.316Z,24.83
2023-02-05T22:40:40.380Z,34.10
2023-02-05T22:43:09.841Z,22.73
2023-02-05T22:45:38.178Z,20.60
2023-02-05T22:52:12.140Z,25.47
2023-02-05T22:54:40.363Z,26.27
2023-02-05T22:57:08.417Z,35.03
2023-02-05T22:59:38.141Z,22.60
2023-02-05T23:02:06.230Z,26.70
2023-02-05T23:04:34.450Z,21.77
2023-02-05T23:07:02.571Z,28.57
2023-02-05T23:09:34.159Z,23.93
2023-02-05T23:12:03.255Z,25.80
2023-02-05T23:14:31.341Z,24.27
2023-02-05T23:17:00.840Z,27.90
2023-02-05T23:19:28.947Z,23.07
2023-02-05T23:21:57.000Z,25.03
2023-02-05T23:24:25.063Z,33.87
2023-02-05T23:26:54.520Z,23.10
2023-02-05T23:29:23.024Z,32.87
2023-02-05T23:31:51.118Z,31.43
2023-02-05T23:34:20.555Z,36.63
2023-02-05T23:36:48.712Z,25.67
2023-02-05T23:39:16.761Z,21.10
2023-02-05T23:41:44.828Z,28.13
2023-02-05T23:44:14.843Z,28.47
2023-02-05T23:46:43.974Z,19.63
2023-02-05T23:49:13.149Z,32.80
2023-02-05T23:51:43.097Z,23.77
2023-02-05T23:54:12.192Z,24.80
2023-02-05T23:56:40.638Z,33.17
2023-02-05T23:59:09.784Z,23.27
